createdAt,value
2022-11-07T00:02:17.011Z,69.33
2022-11-07T00:04:47.977Z,69.61
2022-11-07T00:07:17.332Z,70.11
2022-11-07T00:09:47.634Z,70.69
2022-11-07T00:12:18.236Z,70.72
2022-11-07T00:14:46.644Z,70.51
2022-11-07T00:17:15.963Z,70.43
2022-11-07T00:19:44.337Z,70.63
2022-11-07T00:22:16.158Z,70.36
2022-11-07T00:24:44.651Z,70.40
2022-11-07T00:27:14.146Z,70.26
2022-11-07T00:29:42.893Z,70.79
2022-11-07T00:32:11.255Z,70.74
2022-11-07T00:34:40.677Z,70.78
2022-11-07T00:37:09.114Z,70.70
2022-11-07T00:39:39.113Z,70.52
2022-11-07T00:42:07.490Z,70.51
2022-11-07T00:44:35.892Z,71.01
2022-11-07T00:47:04.199Z,70.60
2022-11-07T00:49:32.480Z,70.44
2022-11-07T00:52:00.751Z,70.74
2022-11-07T00:54:28.981Z,70.64
2022-11-07T00:56:58.696Z,70.54
2022-11-07T00:59:27.052Z,70.25
2022-11-07T01:01:55.430Z,70.42
2022-11-07T01:04:41.140Z,70.23
2022-11-07T01:07:10.518Z,70.21
2022-11-07T01:09:38.837Z,70.52
2022-11-07T01:12:08.772Z,70.24
2022-11-07T01:14:37.292Z,70.19
2022-11-07T01:17:05.758Z,70.36
2022-11-07T01:19:34.254Z,69.87
2022-11-07T01:22:02.725Z,69.99
2022-11-07T01:24:31.118Z,69.64
2022-11-07T01:26:59.825Z,69.61
2022-11-07T01:29:29.966Z,69.46
2022-11-07T01:31:58.544Z,69.02
2022-11-07T01:34:27.303Z,69.09
2022-11-07T01:36:55.728Z,69.10
2022-11-07T01:39:24.121Z,69.38
2022-11-07T01:41:52.632Z,69.65
2022-11-07T01:44:59.416Z,69.05
2022-11-07T01:48:34.958Z,69.70
2022-11-07T01:51:05.762Z,69.62
2022-11-07T01:53:36.407Z,70.12
2022-11-07T01:56:11.025Z,70.29
2022-11-07T01:58:41.771Z,69.75
2022-11-07T02:01:13.753Z,69.86
2022-11-07T02:03:44.344Z,69.96
2022-11-07T02:06:26.911Z,70.66
2022-11-07T02:08:58.565Z,70.17
2022-11-07T02:11:28.985Z,69.85
2022-11-07T02:13:59.462Z,69.89
2022-11-07T02:16:33.414Z,70.31
2022-11-07T02:19:09.056Z,70.64
2022-11-07T02:21:48.096Z,70.46
2022-11-07T02:24:29.432Z,70.69
2022-11-07T02:27:02.804Z,70.67
2022-11-07T02:29:41.278Z,70.71
2022-11-07T02:32:14.658Z,71.21
2022-11-07T02:34:43.452Z,71.17
2022-11-07T02:37:20.134Z,71.33
2022-11-07T02:39:56.178Z,71.45
2022-11-07T02:42:43.829Z,71.19
2022-11-07T02:45:23.810Z,71.57
2022-11-07T02:47:55.991Z,71.17
2022-11-07T02:50:28.888Z,71.01
2022-11-07T02:53:01.448Z,70.93
2022-11-07T02:55:37.380Z,71.01
2022-11-07T02:58:07.760Z,71.36
2022-11-07T03:00:37.636Z,71.18
2022-11-07T03:03:14.379Z,71.61
2022-11-07T03:05:52.620Z,71.32
2022-11-07T03:08:35.414Z,71.87
2022-11-07T03:11:10.405Z,71.18
2022-11-07T03:13:38.895Z,71.86
2022-11-07T03:16:14.012Z,71.87
2022-11-07T03:18:48.375Z,71.63
2022-11-07T03:21:19.660Z,71.66
2022-11-07T03:23:57.860Z,71.12
2022-11-07T03:26:31.280Z,70.85
2022-11-07T03:29:15.232Z,70.78
2022-11-07T03:32:16.221Z,70.95
2022-11-07T03:35:01.981Z,71.03
2022-11-07T03:37:39.717Z,71.13
2022-11-07T03:40:13.795Z,71.52
2022-11-07T03:42:49.326Z,71.39
2022-11-07T03:45:19.771Z,71.77
2022-11-07T03:47:53.423Z,71.63
2022-11-07T03:50:30.781Z,71.48
2022-11-07T03:53:03.664Z,71.41
2022-11-07T03:55:35.568Z,71.83
2022-11-07T03:58:22.313Z,72.05
2022-11-07T04:00:59.963Z,72.24
2022-11-07T04:04:13.182Z,71.44
2022-11-07T04:06:50.611Z,72.31
2022-11-07T04:09:20.336Z,71.74
2022-11-07T04:12:07.333Z,72.00
2022-11-07T04:14:55.144Z,71.88
2022-11-07T04:17:25.316Z,72.49
2022-11-07T04:19:58.058Z,71.77
2022-11-07T04:22:29.919Z,71.83
2022-11-07T04:25:01.865Z,71.69
2022-11-07T04:27:50.630Z,71.72
2022-11-07T04:30:29.693Z,71.99
2022-11-07T04:34:18.267Z,71.31
2022-11-07T04:36:43.518Z,72.39
2022-11-07T04:39:13.601Z,71.95
2022-11-07T04:42:22.144Z,71.75
2022-11-07T04:44:59.749Z,72.54
2022-11-07T04:47:34.186Z,72.41
2022-11-07T04:54:43.788Z,71.57
2022-11-07T04:57:16.453Z,72.55
2022-11-07T04:59:46.264Z,71.96
2022-11-07T05:02:15.213Z,72.44
2022-11-07T05:04:45.973Z,72.45
2022-11-07T05:07:15.302Z,72.70
2022-11-07T05:09:51.549Z,71.35
2022-11-07T05:12:20.856Z,72.37
2022-11-07T05:14:52.984Z,72.31
2022-11-07T05:17:26.854Z,72.56
2022-11-07T05:19:58.000Z,71.90
2022-11-07T05:22:44.351Z,71.90
2022-11-07T05:25:12.652Z,72.68
2022-11-07T05:28:02.425Z,72.28
2022-11-07T05:30:33.666Z,72.41
2022-11-07T05:33:09.659Z,72.28
2022-11-07T05:35:39.931Z,71.82
2022-11-07T05:38:08.753Z,72.89
2022-11-07T05:40:38.269Z,72.94
2022-11-07T05:43:08.909Z,73.16
2022-11-07T05:45:38.759Z,72.84
2022-11-07T05:48:08.866Z,72.67
2022-11-07T05:50:37.932Z,72.53
2022-11-07T05:53:08.472Z,71.75
2022-11-07T05:55:37.096Z,72.40
2022-11-07T05:58:11.259Z,72.50
2022-11-07T06:00:39.716Z,72.43
2022-11-07T06:03:08.332Z,72.20
2022-11-07T06:05:38.144Z,72.39
2022-11-07T06:08:09.378Z,72.45
2022-11-07T06:10:38.008Z,72.17
2022-11-07T06:13:08.171Z,71.95
2022-11-07T06:15:38.412Z,71.87
2022-11-07T06:18:09.469Z,72.45
2022-11-07T06:20:38.040Z,72.25
2022-11-07T06:23:08.176Z,71.91
2022-11-07T06:25:37.457Z,71.58
2022-11-07T06:28:07.845Z,71.98
2022-11-07T06:30:36.814Z,71.71
2022-11-07T06:33:06.176Z,71.19
2022-11-07T06:35:35.555Z,71.78
2022-11-07T06:38:04.661Z,71.64
2022-11-07T06:40:34.705Z,71.46
2022-11-07T06:43:09.333Z,71.06
2022-11-07T06:45:38.163Z,71.80
2022-11-07T06:48:07.236Z,71.78
2022-11-07T06:50:36.029Z,71.57
2022-11-07T06:53:04.889Z,71.45
2022-11-07T06:55:35.435Z,71.39
2022-11-07T06:58:06.703Z,72.48
2022-11-07T07:00:37.072Z,72.65
2022-11-07T07:03:05.910Z,72.48
2022-11-07T07:05:34.616Z,72.41
2022-11-07T07:08:03.157Z,72.84
2022-11-07T07:10:31.766Z,72.60
2022-11-07T07:13:02.267Z,72.52
2022-11-07T07:15:47.513Z,73.05
2022-11-07T07:18:18.916Z,73.06
2022-11-07T07:20:47.616Z,72.73
2022-11-07T07:23:16.121Z,73.63
2022-11-07T07:25:44.715Z,73.72
2022-11-07T07:28:14.704Z,73.23
2022-11-07T07:30:47.166Z,73.17
2022-11-07T07:33:19.243Z,72.37
2022-11-07T07:35:47.579Z,72.32
2022-11-07T07:38:15.794Z,71.94
2022-11-07T07:40:44.051Z,70.29
2022-11-07T07:43:12.552Z,69.73
2022-11-07T07:45:42.423Z,68.55
2022-11-07T07:48:10.655Z,68.30
2022-11-07T07:50:38.952Z,67.62
2022-11-07T07:53:09.207Z,67.20
2022-11-07T07:55:37.755Z,65.91
2022-11-07T07:58:06.069Z,64.97
2022-11-07T08:00:34.395Z,64.85
2022-11-07T08:03:05.435Z,64.55
2022-11-07T08:05:33.794Z,63.80
2022-11-07T08:08:02.330Z,63.75
2022-11-07T08:10:45.901Z,63.51
2022-11-07T08:13:14.423Z,63.77
2022-11-07T08:15:42.962Z,63.40
2022-11-07T08:18:12.657Z,63.24
2022-11-07T08:20:40.958Z,63.40
2022-11-07T08:23:16.132Z,63.40
2022-11-07T08:25:49.749Z,63.55
2022-11-07T08:28:18.282Z,63.56
2022-11-07T08:30:47.522Z,63.59
2022-11-07T08:33:17.956Z,64.29
2022-11-07T08:35:46.621Z,64.79
2022-11-07T08:38:14.867Z,64.77
2022-11-07T08:40:43.222Z,65.33
2022-11-07T08:43:11.474Z,64.82
2022-11-07T08:45:39.745Z,64.46
2022-11-07T08:48:08.204Z,63.42
2022-11-07T08:50:37.927Z,63.30
2022-11-07T08:53:06.329Z,63.04
2022-11-07T08:55:34.643Z,62.56
2022-11-07T08:58:04.617Z,61.86
2022-11-07T09:00:34.469Z,61.92
2022-11-07T09:05:55.002Z,62.35
2022-11-07T09:08:23.813Z,62.25
2022-11-07T09:10:52.477Z,62.74
2022-11-07T09:13:21.504Z,62.66
2022-11-07T09:15:51.845Z,62.89
2022-11-07T09:18:21.152Z,63.02
2022-11-07T09:20:49.923Z,62.41
2022-11-07T09:23:20.565Z,62.78
2022-11-07T09:25:49.647Z,63.28
2022-11-07T09:28:18.427Z,63.05
2022-11-07T09:30:47.242Z,63.03
2022-11-07T09:33:16.113Z,64.36
2022-11-07T09:35:45.031Z,64.09
2022-11-07T09:38:14.713Z,64.22
2022-11-07T09:40:54.655Z,64.55
2022-11-07T09:43:35.689Z,63.56
2022-11-07T09:46:18.412Z,63.50
2022-11-07T09:48:52.513Z,63.58
2022-11-07T09:51:28.834Z,62.87
2022-11-07T09:54:01.618Z,62.92
2022-11-07T09:56:34.436Z,63.51
2022-11-07T09:59:13.784Z,63.26
2022-11-07T10:01:43.412Z,63.45
2022-11-07T10:04:24.655Z,64.05
2022-11-07T10:06:58.966Z,63.90
2022-11-07T10:09:38.185Z,63.71
2022-11-07T10:12:19.465Z,63.36
2022-11-07T10:14:59.520Z,63.21
2022-11-07T10:17:35.772Z,63.55
2022-11-07T10:20:12.987Z,62.89
2022-11-07T10:23:00.435Z,63.07
2022-11-07T10:25:36.885Z,63.02
2022-11-07T10:28:20.210Z,62.96
2022-11-07T10:30:52.257Z,63.33
2022-11-07T10:33:38.706Z,63.25
2022-11-07T10:36:18.580Z,63.45
2022-11-07T10:38:47.565Z,63.02
2022-11-07T10:41:18.229Z,63.17
2022-11-07T10:43:53.346Z,63.10
2022-11-07T10:46:27.022Z,62.22
2022-11-07T10:48:58.205Z,62.13
2022-11-07T10:51:38.382Z,61.62
2022-11-07T10:54:07.623Z,61.77
2022-11-07T10:56:46.925Z,61.44
2022-11-07T10:59:30.131Z,61.00
2022-11-07T11:02:02.922Z,61.44
2022-11-07T11:04:34.021Z,61.04
2022-11-07T11:07:04.912Z,59.78
2022-11-07T11:09:35.806Z,58.83
2022-11-07T11:12:12.996Z,59.11
2022-11-07T11:14:43.507Z,57.89
2022-11-07T11:17:25.787Z,56.62
2022-11-07T11:19:55.683Z,55.77
2022-11-07T11:22:29.296Z,56.75
2022-11-07T11:25:05.141Z,55.69
2022-11-07T11:27:36.421Z,55.23
2022-11-07T11:30:08.889Z,55.74
2022-11-07T11:32:42.530Z,53.56
2022-11-07T11:35:25.968Z,53.68
2022-11-07T11:38:00.527Z,52.99
2022-11-07T11:40:34.187Z,51.18
2022-11-07T11:43:15.909Z,51.14
2022-11-07T11:46:00.625Z,50.99
2022-11-07T11:48:35.556Z,50.00
2022-11-07T11:51:08.018Z,49.95
2022-11-07T11:53:36.760Z,50.93
2022-11-07T11:56:24.762Z,49.47
2022-11-07T11:59:03.181Z,47.12
2022-11-07T12:01:40.889Z,47.64
2022-11-07T12:04:34.422Z,48.31
2022-11-07T12:07:12.275Z,47.20
2022-11-07T12:09:47.210Z,47.60
2022-11-07T12:12:27.649Z,47.03
2022-11-07T12:15:19.398Z,46.75
2022-11-07T12:17:55.066Z,46.64
2022-11-07T12:20:28.336Z,46.16
2022-11-07T12:23:13.715Z,46.29
2022-11-07T12:25:47.621Z,46.41
2022-11-07T12:28:32.256Z,46.51
2022-11-07T12:31:14.130Z,46.66
2022-11-07T12:33:50.676Z,46.10
2022-11-07T12:36:34.279Z,45.00
2022-11-07T12:39:36.799Z,45.02
2022-11-07T12:42:09.787Z,44.01
2022-11-07T12:44:56.190Z,44.26
2022-11-07T12:47:41.217Z,44.83
2022-11-07T12:50:29.816Z,44.82
2022-11-07T12:53:17.321Z,44.69
2022-11-07T12:55:50.497Z,45.27
2022-11-07T12:58:23.689Z,45.04
2022-11-07T13:00:53.521Z,44.62
2022-11-07T13:03:50.718Z,43.89
2022-11-07T13:06:28.889Z,42.70
2022-11-07T13:09:08.307Z,43.49
2022-11-07T13:11:46.480Z,43.25
2022-11-07T13:14:24.833Z,43.27
2022-11-07T13:17:06.089Z,43.46
2022-11-07T13:19:36.313Z,43.30
2022-11-07T13:22:08.483Z,43.32
2022-11-07T13:24:51.360Z,44.18
2022-11-07T13:27:24.537Z,44.47
2022-11-07T13:29:53.630Z,44.56
2022-11-07T13:32:22.338Z,43.51
2022-11-07T13:34:57.164Z,44.21
2022-11-07T13:37:29.639Z,44.24
2022-11-07T13:40:03.290Z,45.03
2022-11-07T13:42:35.114Z,45.84
2022-11-07T13:45:19.389Z,44.92
2022-11-07T13:47:49.186Z,44.54
2022-11-07T13:50:23.192Z,43.55
2022-11-07T13:53:00.598Z,43.05
2022-11-07T13:55:35.743Z,43.45
2022-11-07T13:58:11.443Z,44.89
2022-11-07T14:00:40.409Z,44.51
2022-11-07T14:03:24.151Z,44.35
2022-11-07T14:05:53.174Z,44.16
2022-11-07T14:08:27.170Z,44.54
2022-11-07T14:10:55.908Z,44.34
2022-11-07T14:13:29.027Z,44.00
2022-11-07T14:16:00.791Z,44.36
2022-11-07T14:18:32.900Z,44.96
2022-11-07T14:21:01.519Z,45.61
2022-11-07T14:23:33.849Z,45.23
2022-11-07T14:26:03.772Z,45.68
2022-11-07T14:28:36.169Z,46.01
2022-11-07T14:31:15.052Z,46.66
2022-11-07T14:33:49.978Z,47.10
2022-11-07T14:36:19.496Z,47.97
2022-11-07T14:38:50.810Z,47.65
2022-11-07T14:41:19.856Z,48.50
2022-11-07T14:43:49.032Z,48.35
2022-11-07T14:46:20.544Z,49.53
2022-11-07T14:48:51.507Z,50.26
2022-11-07T14:51:24.520Z,50.30
2022-11-07T14:54:00.689Z,50.71
2022-11-07T14:56:33.037Z,50.81
2022-11-07T14:59:01.743Z,50.91
2022-11-07T15:01:32.490Z,51.14
2022-11-07T15:04:02.768Z,51.44
2022-11-07T15:06:34.526Z,51.40
2022-11-07T15:09:07.287Z,51.62
2022-11-07T15:11:37.287Z,51.79
2022-11-07T15:14:08.136Z,52.21
2022-11-07T15:16:40.198Z,51.84
2022-11-07T15:19:11.164Z,51.89
2022-11-07T15:21:52.080Z,52.21
2022-11-07T15:24:34.409Z,52.08
2022-11-07T15:27:04.239Z,52.36
2022-11-07T15:29:34.134Z,52.54
2022-11-07T15:32:07.810Z,52.48
2022-11-07T15:34:58.631Z,52.54
2022-11-07T15:37:26.951Z,52.88
2022-11-07T15:39:56.572Z,52.77
2022-11-07T15:42:24.849Z,53.07
2022-11-07T15:44:53.023Z,53.05
2022-11-07T15:47:23.549Z,53.30
2022-11-07T15:49:52.104Z,53.54
2022-11-07T15:52:20.317Z,53.80
2022-11-07T15:54:48.547Z,53.78
2022-11-07T15:57:18.989Z,54.10
2022-11-07T15:59:47.363Z,54.44
2022-11-07T16:02:18.228Z,54.73
2022-11-07T16:04:46.552Z,54.97
2022-11-07T16:07:18.698Z,55.34
2022-11-07T16:09:48.925Z,55.20
2022-11-07T16:12:19.808Z,55.61
2022-11-07T16:14:48.030Z,56.07
2022-11-07T16:17:18.239Z,56.30
2022-11-07T16:19:46.667Z,56.66
2022-11-07T16:22:16.393Z,57.21
2022-11-07T16:24:44.543Z,57.55
2022-11-07T16:27:17.345Z,57.92
2022-11-07T16:29:47.354Z,58.45
2022-11-07T16:32:18.495Z,58.75
2022-11-07T16:34:47.808Z,59.25
2022-11-07T16:37:16.399Z,59.68
2022-11-07T16:39:44.665Z,60.53
2022-11-07T16:42:15.914Z,60.95
2022-11-07T16:44:44.222Z,61.14
2022-11-07T16:47:17.067Z,61.31
2022-11-07T16:49:45.299Z,62.41
2022-11-07T16:52:16.198Z,62.42
2022-11-07T16:54:44.443Z,62.23
2022-11-07T16:57:13.616Z,62.50
2022-11-07T16:59:41.992Z,62.50
2022-11-07T17:02:21.150Z,62.79
2022-11-07T17:04:50.962Z,63.16
2022-11-07T17:07:22.755Z,63.67
2022-11-07T17:09:51.678Z,64.45
2022-11-07T17:12:21.843Z,64.36
2022-11-07T17:14:51.047Z,64.83
2022-11-07T17:17:21.062Z,64.75
2022-11-07T17:19:49.357Z,64.67
2022-11-07T17:22:17.883Z,64.76
2022-11-07T17:24:47.344Z,64.83
2022-11-07T17:27:21.914Z,64.80
2022-11-07T17:29:50.515Z,64.73
2022-11-07T17:32:20.133Z,64.95
2022-11-07T17:35:10.690Z,64.53
2022-11-07T17:37:38.316Z,64.72
2022-11-07T17:40:07.539Z,64.72
2022-11-07T17:42:38.301Z,65.20
2022-11-07T17:45:07.901Z,65.21
2022-11-07T17:47:37.456Z,65.68
2022-11-07T17:50:06.146Z,65.87
2022-11-07T17:52:34.524Z,65.83
2022-11-07T17:55:02.748Z,66.04
2022-11-07T17:57:30.933Z,66.28
2022-11-07T17:59:59.171Z,66.00
2022-11-07T18:02:27.521Z,66.45
2022-11-07T18:04:57.447Z,66.46
2022-11-07T18:07:25.693Z,66.44
2022-11-07T18:09:54.915Z,66.51
2022-11-07T18:12:23.476Z,66.43
2022-11-07T18:14:51.694Z,66.35
2022-11-07T18:17:20.851Z,66.55
2022-11-07T18:19:49.468Z,66.28
2022-11-07T18:22:19.041Z,66.35
2022-11-07T18:24:47.640Z,66.66
2022-11-07T18:27:16.049Z,66.49
2022-11-07T18:29:44.424Z,66.62
2022-11-07T18:32:13.997Z,66.75
2022-11-07T18:34:43.462Z,66.44
2022-11-07T18:37:11.704Z,66.69
2022-11-07T18:39:41.509Z,67.00
2022-11-07T18:42:09.714Z,67.21
2022-11-07T18:44:38.082Z,67.12
2022-11-07T18:47:06.416Z,67.62
2022-11-07T18:49:34.645Z,67.65
2022-11-07T18:52:02.837Z,67.79
2022-11-07T18:54:31.051Z,64.33
2022-11-07T18:57:00.696Z,65.55
2022-11-07T18:59:29.061Z,66.47
2022-11-07T19:01:57.264Z,66.77
2022-11-07T19:04:25.513Z,66.70
2022-11-07T19:06:59.504Z,66.66
2022-11-07T19:09:29.543Z,66.87
2022-11-07T19:11:59.028Z,66.90
2022-11-07T19:14:29.828Z,67.00
2022-11-07T19:16:58.757Z,67.43
2022-11-07T19:19:26.936Z,67.56
2022-11-07T19:21:55.151Z,67.20
2022-11-07T19:24:23.397Z,67.54
2022-11-07T19:26:51.668Z,67.03
2022-11-07T19:29:20.035Z,67.44
2022-11-07T19:31:49.709Z,67.41
2022-11-07T19:34:18.203Z,67.71
2022-11-07T19:36:46.454Z,67.73
2022-11-07T19:39:14.646Z,68.22
2022-11-07T19:41:43.000Z,68.34
2022-11-07T19:44:11.822Z,68.27
2022-11-07T19:46:40.107Z,68.14
2022-11-07T19:49:09.806Z,68.23
2022-11-07T19:51:38.006Z,68.13
2022-11-07T19:54:07.665Z,68.14
2022-11-07T19:56:35.869Z,68.29
2022-11-07T19:59:04.168Z,68.33
2022-11-07T20:01:34.167Z,68.32
2022-11-07T20:04:03.614Z,68.48
2022-11-07T20:06:36.570Z,68.13
2022-11-07T20:09:07.312Z,68.50
2022-11-07T20:11:35.769Z,68.31
2022-11-07T20:14:04.422Z,68.02
2022-11-07T20:16:33.746Z,68.08
2022-11-07T20:19:02.312Z,68.10
2022-11-07T20:21:33.849Z,68.08
2022-11-07T20:24:02.131Z,68.52
2022-11-07T20:26:32.127Z,68.69
2022-11-07T20:29:00.738Z,68.48
2022-11-07T20:31:32.794Z,68.19
2022-11-07T20:34:03.742Z,68.67
2022-11-07T20:36:33.989Z,68.79
2022-11-07T20:39:03.466Z,68.86
2022-11-07T20:41:31.998Z,68.67
2022-11-07T20:44:03.932Z,68.92
2022-11-07T20:46:33.285Z,68.60
2022-11-07T20:49:01.780Z,68.78
2022-11-07T20:51:30.148Z,68.89
2022-11-07T20:54:00.236Z,69.77
2022-11-07T20:56:29.942Z,68.71
2022-11-07T20:58:59.138Z,69.06
2022-11-07T21:01:36.227Z,68.74
2022-11-07T21:04:05.217Z,69.67
2022-11-07T21:06:33.662Z,69.95
2022-11-07T21:09:03.729Z,69.42
2022-11-07T21:11:32.268Z,69.90
2022-11-07T21:14:00.676Z,69.73
2022-11-07T21:16:29.647Z,69.68
2022-11-07T21:18:58.046Z,70.08
2022-11-07T21:21:28.616Z,69.15
2022-11-07T21:23:58.734Z,69.59
2022-11-07T21:26:31.685Z,69.35
2022-11-07T21:29:00.676Z,69.35
2022-11-07T21:31:33.251Z,69.54
2022-11-07T21:34:01.502Z,69.30
2022-11-07T21:36:31.575Z,69.47
2022-11-07T21:39:01.394Z,70.13
2022-11-07T21:41:31.946Z,69.93
2022-11-07T21:44:00.671Z,70.47
2022-11-07T21:46:30.524Z,69.57
2022-11-07T21:49:00.117Z,70.00
2022-11-07T21:51:30.659Z,69.51
2022-11-07T21:54:00.157Z,69.37
2022-11-07T21:56:31.582Z,70.17
2022-11-07T21:59:01.775Z,70.40
2022-11-07T22:01:35.111Z,69.62
2022-11-07T22:04:07.502Z,70.07
2022-11-07T22:06:38.302Z,70.08
2022-11-07T22:09:07.846Z,69.56
2022-11-07T22:11:38.937Z,69.94
2022-11-07T22:14:07.271Z,69.99
2022-11-07T22:16:36.284Z,70.55
2022-11-07T22:19:09.711Z,69.79
2022-11-07T22:21:40.804Z,70.57
2022-11-07T22:24:09.717Z,70.40
2022-11-07T22:26:39.439Z,69.88
2022-11-07T22:29:07.645Z,69.75
2022-11-07T22:31:36.392Z,69.86
2022-11-07T22:34:04.695Z,70.74
2022-11-07T22:36:32.887Z,71.03
2022-11-07T22:39:00.995Z,70.37
2022-11-07T22:41:29.536Z,70.48
2022-11-07T22:43:59.743Z,70.82
2022-11-07T22:46:29.668Z,71.40
2022-11-07T22:48:59.024Z,71.70
2022-11-07T22:51:29.123Z,71.75
2022-11-07T22:53:59.065Z,71.66
2022-11-07T22:56:27.796Z,72.06
2022-11-07T22:58:56.242Z,71.94
2022-11-07T23:01:31.139Z,71.89
2022-11-07T23:04:00.230Z,72.18
2022-11-07T23:06:29.982Z,73.07
2022-11-07T23:09:00.296Z,72.50
2022-11-07T23:11:47.603Z,72.82
2022-11-07T23:14:18.783Z,73.33
2022-11-07T23:16:50.064Z,72.96
2022-11-07T23:19:20.907Z,72.49
2022-11-07T23:21:49.485Z,72.71
2022-11-07T23:24:18.267Z,72.69
2022-11-07T23:26:46.541Z,73.33
2022-11-07T23:29:19.462Z,73.14
2022-11-07T23:31:50.260Z,72.93
2022-11-07T23:34:19.791Z,73.32
2022-11-07T23:36:50.699Z,73.03
2022-11-07T23:39:20.720Z,73.24
2022-11-07T23:41:49.070Z,72.59
2022-11-07T23:44:17.318Z,72.70
2022-11-07T23:47:03.556Z,72.95
2022-11-07T23:49:50.336Z,72.59
2022-11-07T23:52:19.339Z,72.38
2022-11-07T23:55:04.911Z,73.28
2022-11-07T23:57:55.530Z,73.79
